Christmas Island, Australian Islands

8:31 AM CXT on December 28, 2014 (GMT +0700)
Christmas Island | Change Station
CLOSE
Current Station
Airport
Location: Christmas Island,
Elevation: 860 ft
Nearby Weather Stations

Elev 860 ft 10.45 °S, 105.69 °E | Updated 29 minutes ago

Rain
Rain
75 °F
Feels Like 75 °F
N
6
Wind Variable Wind from NW

Today
High -- | Low -- °F
--% Chance of Precip.
Yesterday
High -- | Low -- °F
Precip. -- in
5:36 AM 6:20 PM
Waxing Crescent, 42% visible
Pressure 29.89 in
Visibility 5.6 miles
Clouds Scattered Clouds 2200 ft
Mostly Cloudy 3100 ft
Overcast 5700 ft
Dew Point 73 °F
Humidity 94%
Rainfall 0.00 in
Snow Depth Not available.
UV 1 out of 12
Pollen Not available.
Air Quality Not available.
Flu Activity Not available.
SPECI YPXM 280102Z AUTO 31005KT 9000 RA SCT022 BKN031 OVC057 24/23 Q1012

More Conditions Fewer Conditions

Pressure 29.89 in
Visibility 5.6 miles
Clouds Scattered Clouds 2200 ft
Mostly Cloudy 3100 ft
Overcast 5700 ft
Dew Point 73 °F
Humidity 94%
Rainfall 0.00 in
Snow Depth Not available.
UV 1 out of 12
Pollen Not available.
Air Quality Not available.
Flu Activity Not available.
SPECI YPXM 280102Z AUTO 31005KT 9000 RA SCT022 BKN031 OVC057 24/23 Q1012

More Conditions Fewer Conditions

10-Day Weather Forecast

Almanac

Astronomy

Dec. 28, 2014 Rise Set
Actual Time
Civil Twilight
Nautical Twilight
Astronomical Twilight
Moon
Length of Visible Light
Length of Day
Tomorrow will be .
, % of the Moon is Illuminated

Today's Extremes

Country Highs Country Lows

Community

WunderPhotos

Upload Photos

1,781,123 photos uploaded!

WunderBlogs® & News

Nearby

Air Quality

  Air Quality AQ Index Pollutant
Not available.

Snow Depth

Station Depth Elevation

Earthquake Activity

City Distance Mag. Time & Date
Minimum magnitude displayed is 2.5.

Coastal Water Temperatures

Place Temperature

Nearby Weather Stations